sensor_id;sensor_type;location;lat;lon;timestamp;temperature;humidity
17178;DHT22;8704;52.006;4.374;2023-03-12T00:00:46;3.40;99.90
17178;DHT22;8704;52.006;4.374;2023-03-12T00:03:16;3.40;99.90
17178;DHT22;8704;52.006;4.374;2023-03-12T00:05:44;3.90;99.90
17178;DHT22;8704;52.006;4.374;2023-03-12T00:08:12;3.80;99.90
17178;DHT22;8704;52.006;4.374;2023-03-12T00:10:40;3.40;99.90
17178;DHT22;8704;52.006;4.374;2023-03-12T00:13:08;3.40;99.90
17178;DHT22;8704;52.006;4.374;2023-03-12T00:15:37;3.40;99.90
17178;DHT22;8704;52.006;4.374;2023-03-12T00:18:05;4.50;99.90
17178;DHT22;8704;52.006;4.374;2023-03-12T00:20:34;3.80;99.90
17178;DHT22;8704;52.006;4.374;2023-03-12T00:23:02;3.60;99.90
17178;DHT22;8704;52.006;4.374;2023-03-12T00:25:30;3.40;99.90
17178;DHT22;8704;52.006;4.374;2023-03-12T00:27:58;3.40;99.90
17178;DHT22;8704;52.006;4.374;2023-03-12T00:30:26;3.40;99.90
17178;DHT22;8704;52.006;4.374;2023-03-12T00:32:55;3.50;99.90
17178;DHT22;8704;52.006;4.374;2023-03-12T00:35:23;3.50;99.90
17178;DHT22;8704;52.006;4.374;2023-03-12T00:37:52;3.50;99.90
17178;DHT22;8704;52.006;4.374;2023-03-12T00:40:20;3.80;99.90
17178;DHT22;8704;52.006;4.374;2023-03-12T00:42:48;4.10;99.90
17178;DHT22;8704;52.006;4.374;2023-03-12T00:45:16;3.50;99.90
17178;DHT22;8704;52.006;4.374;2023-03-12T00:47:44;3.50;99.90
17178;DHT22;8704;52.006;4.374;2023-03-12T00:50:12;3.90;99.90
17178;DHT22;8704;52.006;4.374;2023-03-12T00:52:40;3.50;99.90
17178;DHT22;8704;52.006;4.374;2023-03-12T00:55:10;3.50;99.90
17178;DHT22;8704;52.006;4.374;2023-03-12T00:57:38;4.10;99.90
17178;DHT22;8704;52.006;4.374;2023-03-12T01:00:07;3.50;99.90
17178;DHT22;8704;52.006;4.374;2023-03-12T01:02:36;3.60;99.90
17178;DHT22;8704;52.006;4.374;2023-03-12T01:05:06;3.60;99.90
17178;DHT22;8704;52.006;4.374;2023-03-12T01:07:35;3.60;99.90
17178;DHT22;8704;52.006;4.374;2023-03-12T01:10:03;4.50;99.90
17178;DHT22;8704;52.006;4.374;2023-03-12T01:12:33;3.70;99.90
17178;DHT22;8704;52.006;4.374;2023-03-12T01:15:01;3.70;99.90
17178;DHT22;8704;52.006;4.374;2023-03-12T01:17:29;3.70;99.90
17178;DHT22;8704;52.006;4.374;2023-03-12T01:19:57;3.70;99.90
17178;DHT22;8704;52.006;4.374;2023-03-12T01:22:25;3.70;99.90
17178;DHT22;8704;52.006;4.374;2023-03-12T01:24:53;3.70;99.90
17178;DHT22;8704;52.006;4.374;2023-03-12T01:27:21;4.00;99.90
17178;DHT22;8704;52.006;4.374;2023-03-12T01:29:50;4.10;99.90
17178;DHT22;8704;52.006;4.374;2023-03-12T01:32:18;4.40;99.90
17178;DHT22;8704;52.006;4.374;2023-03-12T01:34:46;3.80;99.90
17178;DHT22;8704;52.006;4.374;2023-03-12T01:37:14;3.80;99.90
17178;DHT22;8704;52.006;4.374;2023-03-12T01:39:42;5.00;99.90
17178;DHT22;8704;52.006;4.374;2023-03-12T01:42:10;4.30;99.90
17178;DHT22;8704;52.006;4.374;2023-03-12T01:44:51;3.80;99.90
17178;DHT22;8704;52.006;4.374;2023-03-12T01:47:19;4.30;99.90
17178;DHT22;8704;52.006;4.374;2023-03-12T01:49:48;3.80;99.90
17178;DHT22;8704;52.006;4.374;2023-03-12T01:52:18;3.80;99.90
17178;DHT22;8704;52.006;4.374;2023-03-12T01:54:51;4.40;99.90
17178;DHT22;8704;52.006;4.374;2023-03-12T01:57:22;3.80;99.90
17178;DHT22;8704;52.006;4.374;2023-03-12T01:59:56;3.80;99.90
17178;DHT22;8704;52.006;4.374;2023-03-12T02:02:26;3.80;99.90
17178;DHT22;8704;52.006;4.374;2023-03-12T02:05:02;3.80;99.90
17178;DHT22;8704;52.006;4.374;2023-03-12T02:07:33;3.80;99.90
17178;DHT22;8704;52.006;4.374;2023-03-12T02:10:02;3.80;99.90
17178;DHT22;8704;52.006;4.374;2023-03-12T02:12:30;3.80;99.90
17178;DHT22;8704;52.006;4.374;2023-03-12T02:15:00;4.70;99.90
17178;DHT22;8704;52.006;4.374;2023-03-12T02:17:29;4.50;99.90
17178;DHT22;8704;52.006;4.374;2023-03-12T02:20:03;3.90;99.90
17178;DHT22;8704;52.006;4.374;2023-03-12T02:22:38;3.90;99.90
17178;DHT22;8704;52.006;4.374;2023-03-12T02:25:23;4.60;99.90
17178;DHT22;8704;52.006;4.374;2023-03-12T02:27:54;3.90;99.90
17178;DHT22;8704;52.006;4.374;2023-03-12T02:30:24;3.90;99.90
17178;DHT22;8704;52.006;4.374;2023-03-12T02:32:53;4.00;99.90
17178;DHT22;8704;52.006;4.374;2023-03-12T02:35:22;3.90;99.90
17178;DHT22;8704;52.006;4.374;2023-03-12T02:37:53;3.90;99.90
17178;DHT22;8704;52.006;4.374;2023-03-12T02:40:28;3.90;99.90
17178;DHT22;8704;52.006;4.374;2023-03-12T02:42:58;3.90;1.00
17178;DHT22;8704;52.006;4.374;2023-03-12T02:45:27;4.00;1.00
17178;DHT22;8704;52.006;4.374;2023-03-12T02:47:56;3.80;1.00
17178;DHT22;8704;52.006;4.374;2023-03-12T02:50:24;3.80;1.00
17178;DHT22;8704;52.006;4.374;2023-03-12T02:52:52;4.30;1.00
17178;DHT22;8704;52.006;4.374;2023-03-12T02:55:20;3.80;1.00
17178;DHT22;8704;52.006;4.374;2023-03-12T02:57:49;3.80;1.00
17178;DHT22;8704;52.006;4.374;2023-03-12T03:00:18;3.80;1.00
17178;DHT22;8704;52.006;4.374;2023-03-12T03:02:46;3.80;1.00
17178;DHT22;8704;52.006;4.374;2023-03-12T03:05:14;4.50;1.00
17178;DHT22;8704;52.006;4.374;2023-03-12T03:07:42;4.20;1.00
17178;DHT22;8704;52.006;4.374;2023-03-12T03:10:10;3.80;1.00
17178;DHT22;8704;52.006;4.374;2023-03-12T03:12:38;3.80;1.00
17178;DHT22;8704;52.006;4.374;2023-03-12T03:15:09;4.50;1.00
17178;DHT22;8704;52.006;4.374;2023-03-12T03:17:37;3.80;1.00
17178;DHT22;8704;52.006;4.374;2023-03-12T03:20:06;3.80;1.00
17178;DHT22;8704;52.006;4.374;2023-03-12T03:22:37;3.80;1.00
17178;DHT22;8704;52.006;4.374;2023-03-12T03:25:07;3.80;1.00
17178;DHT22;8704;52.006;4.374;2023-03-12T03:27:36;3.80;1.00
17178;DHT22;8704;52.006;4.374;2023-03-12T03:30:05;4.90;1.00
17178;DHT22;8704;52.006;4.374;2023-03-12T03:32:34;3.80;1.00
17178;DHT22;8704;52.006;4.374;2023-03-12T03:35:02;3.80;1.00
17178;DHT22;8704;52.006;4.374;2023-03-12T03:37:30;3.80;1.00
17178;DHT22;8704;52.006;4.374;2023-03-12T03:39:59;3.80;1.00
17178;DHT22;8704;52.006;4.374;2023-03-12T03:42:27;3.80;1.00
17178;DHT22;8704;52.006;4.374;2023-03-12T03:44:55;3.80;1.00
17178;DHT22;8704;52.006;4.374;2023-03-12T03:47:23;3.80;1.00
17178;DHT22;8704;52.006;4.374;2023-03-12T03:49:52;3.80;1.00
17178;DHT22;8704;52.006;4.374;2023-03-12T03:52:20;3.80;1.00
17178;DHT22;8704;52.006;4.374;2023-03-12T03:54:48;4.00;1.00
17178;DHT22;8704;52.006;4.374;2023-03-12T03:57:16;4.00;1.00
17178;DHT22;8704;52.006;4.374;2023-03-12T03:59:44;3.80;1.00
17178;DHT22;8704;52.006;4.374;2023-03-12T04:02:12;3.80;1.00
17178;DHT22;8704;52.006;4.374;2023-03-12T04:04:39;3.90;1.00
17178;DHT22;8704;52.006;4.374;2023-03-12T04:07:09;3.90;1.00
17178;DHT22;8704;52.006;4.374;2023-03-12T04:09:37;4.30;1.00
17178;DHT22;8704;52.006;4.374;2023-03-12T04:12:05;4.30;1.00
17178;DHT22;8704;52.006;4.374;2023-03-12T04:14:33;3.80;1.00
17178;DHT22;8704;52.006;4.374;2023-03-12T04:17:01;4.80;1.00
17178;DHT22;8704;52.006;4.374;2023-03-12T04:19:29;3.70;1.00
17178;DHT22;8704;52.006;4.374;2023-03-12T04:21:58;3.70;1.00
17178;DHT22;8704;52.006;4.374;2023-03-12T04:24:27;3.60;1.00
17178;DHT22;8704;52.006;4.374;2023-03-12T04:26:56;3.60;1.00
17178;DHT22;8704;52.006;4.374;2023-03-12T04:29:24;3.60;1.00
17178;DHT22;8704;52.006;4.374;2023-03-12T04:31:52;4.50;1.00
17178;DHT22;8704;52.006;4.374;2023-03-12T04:34:20;3.60;1.00
17178;DHT22;8704;52.006;4.374;2023-03-12T04:36:48;4.40;13.60
17178;DHT22;8704;52.006;4.374;2023-03-12T04:39:17;4.40;57.60
17178;DHT22;8704;52.006;4.374;2023-03-12T04:41:47;3.60;99.90
17178;DHT22;8704;52.006;4.374;2023-03-12T04:44:15;3.50;99.90
17178;DHT22;8704;52.006;4.374;2023-03-12T04:46:43;3.50;99.90
17178;DHT22;8704;52.006;4.374;2023-03-12T04:49:11;3.50;99.90
17178;DHT22;8704;52.006;4.374;2023-03-12T04:51:39;3.90;99.90
17178;DHT22;8704;52.006;4.374;2023-03-12T04:54:07;3.50;99.90
17178;DHT22;8704;52.006;4.374;2023-03-12T04:56:35;3.60;99.90
17178;DHT22;8704;52.006;4.374;2023-03-12T04:59:04;3.60;99.90
17178;DHT22;8704;52.006;4.374;2023-03-12T05:01:34;3.90;99.90
17178;DHT22;8704;52.006;4.374;2023-03-12T05:04:03;3.50;99.90
17178;DHT22;8704;52.006;4.374;2023-03-12T05:06:32;3.40;99.90
17178;DHT22;8704;52.006;4.374;2023-03-12T05:09:00;3.50;99.90
17178;DHT22;8704;52.006;4.374;2023-03-12T05:11:28;3.80;99.90
17178;DHT22;8704;52.006;4.374;2023-03-12T05:13:56;3.40;99.90
17178;DHT22;8704;52.006;4.374;2023-03-12T05:16:25;3.70;99.90
17178;DHT22;8704;52.006;4.374;2023-03-12T05:18:53;3.40;99.90
17178;DHT22;8704;52.006;4.374;2023-03-12T05:21:21;3.60;99.90
17178;DHT22;8704;52.006;4.374;2023-03-12T05:23:49;3.40;99.90
17178;DHT22;8704;52.006;4.374;2023-03-12T05:26:19;3.40;99.90
17178;DHT22;8704;52.006;4.374;2023-03-12T05:28:47;3.80;99.90
17178;DHT22;8704;52.006;4.374;2023-03-12T05:31:16;3.60;99.90
17178;DHT22;8704;52.006;4.374;2023-03-12T05:33:46;4.10;1.00
17178;DHT22;8704;52.006;4.374;2023-03-12T05:36:16;3.40;1.00
17178;DHT22;8704;52.006;4.374;2023-03-12T05:38:44;3.80;1.00
17178;DHT22;8704;52.006;4.374;2023-03-12T05:41:18;3.90;1.00
17178;DHT22;8704;52.006;4.374;2023-03-12T05:43:47;3.50;1.00
17178;DHT22;8704;52.006;4.374;2023-03-12T05:46:15;3.40;1.00
17178;DHT22;8704;52.006;4.374;2023-03-12T05:48:44;3.40;1.00
17178;DHT22;8704;52.006;4.374;2023-03-12T05:51:12;3.40;1.00
17178;DHT22;8704;52.006;4.374;2023-03-12T05:53:40;3.40;1.00
17178;DHT22;8704;52.006;4.374;2023-03-12T05:56:12;3.50;1.00
17178;DHT22;8704;52.006;4.374;2023-03-12T05:58:41;3.50;1.00
17178;DHT22;8704;52.006;4.374;2023-03-12T06:01:13;3.50;1.00
17178;DHT22;8704;52.006;4.374;2023-03-12T06:03:42;3.50;1.00
17178;DHT22;8704;52.006;4.374;2023-03-12T06:06:11;3.50;1.00
17178;DHT22;8704;52.006;4.374;2023-03-12T06:08:40;3.40;1.00
17178;DHT22;8704;52.006;4.374;2023-03-12T06:11:09;3.50;1.00
17178;DHT22;8704;52.006;4.374;2023-03-12T06:13:37;3.80;1.00
17178;DHT22;8704;52.006;4.374;2023-03-12T06:16:07;3.80;1.00
17178;DHT22;8704;52.006;4.374;2023-03-12T06:18:36;3.50;1.00
17178;DHT22;8704;52.006;4.374;2023-03-12T06:21:11;3.50;1.00
17178;DHT22;8704;52.006;4.374;2023-03-12T06:23:40;3.60;1.00
17178;DHT22;8704;52.006;4.374;2023-03-12T06:26:09;3.50;1.00
17178;DHT22;8704;52.006;4.374;2023-03-12T06:28:38;3.70;1.00
17178;DHT22;8704;52.006;4.374;2023-03-12T06:31:06;3.60;1.00
17178;DHT22;8704;52.006;4.374;2023-03-12T06:33:35;4.50;1.00
17178;DHT22;8704;52.006;4.374;2023-03-12T06:36:05;3.60;6.90
17178;DHT22;8704;52.006;4.374;2023-03-12T06:38:35;3.60;29.70
17178;DHT22;8704;52.006;4.374;2023-03-12T06:41:05;4.30;90.50
17178;DHT22;8704;52.006;4.374;2023-03-12T06:43:35;4.00;95.60
17178;DHT22;8704;52.006;4.374;2023-03-12T06:46:05;3.90;99.90
17178;DHT22;8704;52.006;4.374;2023-03-12T06:48:34;4.10;99.90
17178;DHT22;8704;52.006;4.374;2023-03-12T06:51:03;3.70;99.90
17178;DHT22;8704;52.006;4.374;2023-03-12T06:53:31;3.70;99.90
17178;DHT22;8704;52.006;4.374;2023-03-12T06:56:00;4.30;99.90
17178;DHT22;8704;52.006;4.374;2023-03-12T06:58:29;3.70;99.90
17178;DHT22;8704;52.006;4.374;2023-03-12T07:00:57;4.20;99.90
17178;DHT22;8704;52.006;4.374;2023-03-12T07:03:25;3.80;99.90
17178;DHT22;8704;52.006;4.374;2023-03-12T07:05:55;3.80;99.90
17178;DHT22;8704;52.006;4.374;2023-03-12T07:08:24;4.50;99.90
17178;DHT22;8704;52.006;4.374;2023-03-12T07:10:52;4.20;99.90
17178;DHT22;8704;52.006;4.374;2023-03-12T07:13:21;3.90;99.90
17178;DHT22;8704;52.006;4.374;2023-03-12T07:15:49;4.00;99.90
17178;DHT22;8704;52.006;4.374;2023-03-12T07:18:18;4.00;99.90
17178;DHT22;8704;52.006;4.374;2023-03-12T07:20:46;4.10;99.90
17178;DHT22;8704;52.006;4.374;2023-03-12T07:23:14;4.00;99.90
17178;DHT22;8704;52.006;4.374;2023-03-12T07:25:43;4.10;99.90
17178;DHT22;8704;52.006;4.374;2023-03-12T07:28:12;4.40;99.90
17178;DHT22;8704;52.006;4.374;2023-03-12T07:30:41;4.10;1.00
17178;DHT22;8704;52.006;4.374;2023-03-12T07:33:10;4.10;1.00
17178;DHT22;8704;52.006;4.374;2023-03-12T07:35:39;4.20;1.00
17178;DHT22;8704;52.006;4.374;2023-03-12T07:38:07;4.30;1.00
17178;DHT22;8704;52.006;4.374;2023-03-12T07:40:36;4.20;1.00
17178;DHT22;8704;52.006;4.374;2023-03-12T07:43:04;4.30;1.00
17178;DHT22;8704;52.006;4.374;2023-03-12T07:45:37;4.40;1.00
17178;DHT22;8704;52.006;4.374;2023-03-12T07:48:07;4.50;1.00
17178;DHT22;8704;52.006;4.374;2023-03-12T07:50:35;4.50;1.00
17178;DHT22;8704;52.006;4.374;2023-03-12T07:53:04;4.60;1.00
17178;DHT22;8704;52.006;4.374;2023-03-12T07:55:33;4.60;1.00
17178;DHT22;8704;52.006;4.374;2023-03-12T07:58:01;4.70;51.30
17178;DHT22;8704;52.006;4.374;2023-03-12T08:00:30;4.70;99.90
17178;DHT22;8704;52.006;4.374;2023-03-12T08:02:58;5.60;99.90
17178;DHT22;8704;52.006;4.374;2023-03-12T08:05:28;4.80;99.90
17178;DHT22;8704;52.006;4.374;2023-03-12T08:07:56;4.70;99.90
17178;DHT22;8704;52.006;4.374;2023-03-12T08:10:24;4.90;1.00
17178;DHT22;8704;52.006;4.374;2023-03-12T08:12:53;4.90;1.00
17178;DHT22;8704;52.006;4.374;2023-03-12T08:15:21;4.90;31.10
17178;DHT22;8704;52.006;4.374;2023-03-12T08:17:49;5.00;1.00
17178;DHT22;8704;52.006;4.374;2023-03-12T08:20:17;5.00;99.90
17178;DHT22;8704;52.006;4.374;2023-03-12T08:22:46;5.20;99.90
17178;DHT22;8704;52.006;4.374;2023-03-12T08:25:14;5.20;99.90
17178;DHT22;8704;52.006;4.374;2023-03-12T08:27:44;5.30;1.00
17178;DHT22;8704;52.006;4.374;2023-03-12T08:30:12;5.30;1.00
17178;DHT22;8704;52.006;4.374;2023-03-12T08:32:40;5.40;1.00
17178;DHT22;8704;52.006;4.374;2023-03-12T08:35:09;5.50;99.90
17178;DHT22;8704;52.006;4.374;2023-03-12T08:37:37;5.70;99.90
17178;DHT22;8704;52.006;4.374;2023-03-12T08:40:08;6.00;99.90
17178;DHT22;8704;52.006;4.374;2023-03-12T08:42:39;5.60;99.90
17178;DHT22;8704;52.006;4.374;2023-03-12T08:45:08;5.70;1.00
17178;DHT22;8704;52.006;4.374;2023-03-12T08:47:37;5.70;1.00
17178;DHT22;8704;52.006;4.374;2023-03-12T08:50:09;6.00;1.00
17178;DHT22;8704;52.006;4.374;2023-03-12T08:52:37;5.90;1.00
17178;DHT22;8704;52.006;4.374;2023-03-12T08:55:08;6.00;24.10
17178;DHT22;8704;52.006;4.374;2023-03-12T08:57:36;6.10;60.70
17178;DHT22;8704;52.006;4.374;2023-03-12T09:00:06;6.30;99.90
17178;DHT22;8704;52.006;4.374;2023-03-12T09:02:42;6.40;99.90
17178;DHT22;8704;52.006;4.374;2023-03-12T09:05:10;6.60;99.90
17178;DHT22;8704;52.006;4.374;2023-03-12T09:07:38;6.70;99.70
17178;DHT22;8704;52.006;4.374;2023-03-12T09:10:08;6.90;99.90
17178;DHT22;8704;52.006;4.374;2023-03-12T09:12:37;7.10;99.90
17178;DHT22;8704;52.006;4.374;2023-03-12T09:15:06;7.30;1.00
17178;DHT22;8704;52.006;4.374;2023-03-12T09:17:34;7.30;1.00
17178;DHT22;8704;52.006;4.374;2023-03-12T09:20:03;7.40;1.00
17178;DHT22;8704;52.006;4.374;2023-03-12T09:22:34;7.50;59.10
17178;DHT22;8704;52.006;4.374;2023-03-12T09:25:04;7.80;99.90
17178;DHT22;8704;52.006;4.374;2023-03-12T09:27:36;7.70;99.90
17178;DHT22;8704;52.006;4.374;2023-03-12T09:30:05;7.80;99.90
17178;DHT22;8704;52.006;4.374;2023-03-12T09:32:34;7.80;99.90
17178;DHT22;8704;52.006;4.374;2023-03-12T09:35:02;7.90;99.90
17178;DHT22;8704;52.006;4.374;2023-03-12T09:37:31;7.90;99.90
17178;DHT22;8704;52.006;4.374;2023-03-12T09:39:59;7.90;99.90
17178;DHT22;8704;52.006;4.374;2023-03-12T09:42:34;8.70;1.00
17178;DHT22;8704;52.006;4.374;2023-03-12T09:45:10;8.40;1.00
17178;DHT22;8704;52.006;4.374;2023-03-12T09:47:45;8.20;1.00
17178;DHT22;8704;52.006;4.374;2023-03-12T09:50:22;8.20;1.00
17178;DHT22;8704;52.006;4.374;2023-03-12T09:52:57;8.30;1.00
17178;DHT22;8704;52.006;4.374;2023-03-12T09:55:27;8.80;1.00
17178;DHT22;8704;52.006;4.374;2023-03-12T09:57:58;8.40;1.00
17178;DHT22;8704;52.006;4.374;2023-03-12T10:00:29;8.40;1.00
17178;DHT22;8704;52.006;4.374;2023-03-12T10:03:08;9.40;1.00
17178;DHT22;8704;52.006;4.374;2023-03-12T10:05:42;8.50;99.90
17178;DHT22;8704;52.006;4.374;2023-03-12T10:08:19;8.60;99.90
17178;DHT22;8704;52.006;4.374;2023-03-12T10:10:54;8.70;99.90
17178;DHT22;8704;52.006;4.374;2023-03-12T10:13:43;8.70;99.90
17178;DHT22;8704;52.006;4.374;2023-03-12T10:16:26;9.00;1.00
17178;DHT22;8704;52.006;4.374;2023-03-12T10:19:00;8.90;1.00
17178;DHT22;8704;52.006;4.374;2023-03-12T10:21:34;9.50;1.00
17178;DHT22;8704;52.006;4.374;2023-03-12T10:24:19;8.90;99.90
17178;DHT22;8704;52.006;4.374;2023-03-12T10:26:53;8.00;29.30
17178;DHT22;8704;52.006;4.374;2023-03-12T10:29:25;9.00;1.00
17178;DHT22;8704;52.006;4.374;2023-03-12T10:31:59;9.00;1.00
17178;DHT22;8704;52.006;4.374;2023-03-12T10:34:31;9.20;1.00
17178;DHT22;8704;52.006;4.374;2023-03-12T10:37:12;9.10;1.00
17178;DHT22;8704;52.006;4.374;2023-03-12T10:39:41;9.10;99.90
17178;DHT22;8704;52.006;4.374;2023-03-12T10:42:13;9.20;99.90
17178;DHT22;8704;52.006;4.374;2023-03-12T10:44:43;9.20;99.90
17178;DHT22;8704;52.006;4.374;2023-03-12T10:47:32;9.20;99.90
17178;DHT22;8704;52.006;4.374;2023-03-12T10:50:13;9.20;99.90
17178;DHT22;8704;52.006;4.374;2023-03-12T10:52:42;9.20;33.00
17178;DHT22;8704;52.006;4.374;2023-03-12T10:55:15;9.20;1.00
17178;DHT22;8704;52.006;4.374;2023-03-12T10:57:47;9.30;1.00
17178;DHT22;8704;52.006;4.374;2023-03-12T11:00:18;9.70;1.00
17178;DHT22;8704;52.006;4.374;2023-03-12T11:02:55;9.40;1.00
17178;DHT22;8704;52.006;4.374;2023-03-12T11:05:26;9.40;1.00
17178;DHT22;8704;52.006;4.374;2023-03-12T11:07:55;9.50;1.00
17178;DHT22;8704;52.006;4.374;2023-03-12T11:10:26;9.60;1.00
17178;DHT22;8704;52.006;4.374;2023-03-12T11:13:19;9.60;1.00
17178;DHT22;8704;52.006;4.374;2023-03-12T11:15:48;9.60;1.00
17178;DHT22;8704;52.006;4.374;2023-03-12T11:18:24;9.70;1.00
17178;DHT22;8704;52.006;4.374;2023-03-12T11:20:54;9.70;99.90
17178;DHT22;8704;52.006;4.374;2023-03-12T11:23:26;9.80;99.90
17178;DHT22;8704;52.006;4.374;2023-03-12T11:25:57;10.40;99.90
17178;DHT22;8704;52.006;4.374;2023-03-12T11:28:35;10.30;99.90
17178;DHT22;8704;52.006;4.374;2023-03-12T11:31:07;9.90;99.90
17178;DHT22;8704;52.006;4.374;2023-03-12T11:33:37;9.90;99.90
17178;DHT22;8704;52.006;4.374;2023-03-12T11:36:16;10.00;99.90
17178;DHT22;8704;52.006;4.374;2023-03-12T11:38:53;10.40;99.90
17178;DHT22;8704;52.006;4.374;2023-03-12T11:41:35;10.20;99.90
17178;DHT22;8704;52.006;4.374;2023-03-12T11:44:24;10.20;99.90
17178;DHT22;8704;52.006;4.374;2023-03-12T11:47:02;10.20;29.80
17178;DHT22;8704;52.006;4.374;2023-03-12T11:49:44;10.30;1.00
17178;DHT22;8704;52.006;4.374;2023-03-12T11:52:23;10.70;1.00
17178;DHT22;8704;52.006;4.374;2023-03-12T11:55:11;10.40;1.00
17178;DHT22;8704;52.006;4.374;2023-03-12T11:57:53;10.40;1.00
17178;DHT22;8704;52.006;4.374;2023-03-12T12:00:27;10.50;1.00
17178;DHT22;8704;52.006;4.374;2023-03-12T12:03:25;10.60;1.00
17178;DHT22;8704;52.006;4.374;2023-03-12T12:06:01;10.60;1.00
17178;DHT22;8704;52.006;4.374;2023-03-12T12:08:49;10.70;1.00
17178;DHT22;8704;52.006;4.374;2023-03-12T12:11:26;10.80;1.00
17178;DHT22;8704;52.006;4.374;2023-03-12T12:14:06;11.00;1.00
17178;DHT22;8704;52.006;4.374;2023-03-12T12:16:50;11.10;1.00
17178;DHT22;8704;52.006;4.374;2023-03-12T12:19:28;11.50;1.00
17178;DHT22;8704;52.006;4.374;2023-03-12T12:22:12;11.30;1.00
17178;DHT22;8704;52.006;4.374;2023-03-12T12:24:57;11.30;1.00
17178;DHT22;8704;52.006;4.374;2023-03-12T12:27:32;11.30;1.00
17178;DHT22;8704;52.006;4.374;2023-03-12T12:30:10;11.40;1.00
17178;DHT22;8704;52.006;4.374;2023-03-12T12:32:55;11.70;99.90
17178;DHT22;8704;52.006;4.374;2023-03-12T12:35:29;11.40;1.00
17178;DHT22;8704;52.006;4.374;2023-03-12T12:38:04;11.40;1.00
17178;DHT22;8704;52.006;4.374;2023-03-12T12:40:39;11.50;1.00
17178;DHT22;8704;52.006;4.374;2023-03-12T12:43:24;11.60;99.90
17178;DHT22;8704;52.006;4.374;2023-03-12T12:45:57;11.60;99.90
17178;DHT22;8704;52.006;4.374;2023-03-12T12:48:28;11.50;99.90
17178;DHT22;8704;52.006;4.374;2023-03-12T12:50:59;11.60;99.90
17178;DHT22;8704;52.006;4.374;2023-03-12T12:53:37;11.50;99.90
17178;DHT22;8704;52.006;4.374;2023-03-12T12:56:12;11.50;99.90
17178;DHT22;8704;52.006;4.374;2023-03-12T12:58:58;11.50;99.90
17178;DHT22;8704;52.006;4.374;2023-03-12T13:01:28;11.60;99.90
17178;DHT22;8704;52.006;4.374;2023-03-12T13:04:01;11.60;99.90
17178;DHT22;8704;52.006;4.374;2023-03-12T13:06:53;11.70;99.90
17178;DHT22;8704;52.006;4.374;2023-03-12T13:09:34;11.70;99.90
17178;DHT22;8704;52.006;4.374;2023-03-12T13:12:13;11.80;99.90
17178;DHT22;8704;52.006;4.374;2023-03-12T13:14:43;11.90;99.90
17178;DHT22;8704;52.006;4.374;2023-03-12T13:17:26;12.10;99.90
17178;DHT22;8704;52.006;4.374;2023-03-12T13:22:51;12.10;99.90
17178;DHT22;8704;52.006;4.374;2023-03-12T13:25:29;12.10;99.90
17178;DHT22;8704;52.006;4.374;2023-03-12T13:28:27;12.10;99.90
17178;DHT22;8704;52.006;4.374;2023-03-12T13:30:58;12.20;99.90
17178;DHT22;8704;52.006;4.374;2023-03-12T13:33:39;12.30;99.90
17178;DHT22;8704;52.006;4.374;2023-03-12T13:36:21;12.50;99.90
17178;DHT22;8704;52.006;4.374;2023-03-12T13:38:58;12.80;99.90
17178;DHT22;8704;52.006;4.374;2023-03-12T13:41:34;13.10;99.90
17178;DHT22;8704;52.006;4.374;2023-03-12T13:44:28;13.30;99.90
17178;DHT22;8704;52.006;4.374;2023-03-12T13:46:58;13.50;99.90
17178;DHT22;8704;52.006;4.374;2023-03-12T13:49:28;13.60;99.90
17178;DHT22;8704;52.006;4.374;2023-03-12T13:52:16;13.70;99.90
17178;DHT22;8704;52.006;4.374;2023-03-12T13:54:47;13.60;99.90
17178;DHT22;8704;52.006;4.374;2023-03-12T13:57:28;13.50;99.90
17178;DHT22;8704;52.006;4.374;2023-03-12T13:59:57;13.70;99.90
17178;DHT22;8704;52.006;4.374;2023-03-12T14:02:29;13.70;99.90
17178;DHT22;8704;52.006;4.374;2023-03-12T14:05:03;13.80;99.90
17178;DHT22;8704;52.006;4.374;2023-03-12T14:10:46;13.80;99.90
17178;DHT22;8704;52.006;4.374;2023-03-12T14:13:38;13.80;99.90
17178;DHT22;8704;52.006;4.374;2023-03-12T14:16:19;13.50;99.90
17178;DHT22;8704;52.006;4.374;2023-03-12T14:18:50;13.40;99.90
17178;DHT22;8704;52.006;4.374;2023-03-12T14:21:20;13.50;99.90
17178;DHT22;8704;52.006;4.374;2023-03-12T14:23:53;13.40;99.90
17178;DHT22;8704;52.006;4.374;2023-03-12T14:26:25;13.50;99.90
17178;DHT22;8704;52.006;4.374;2023-03-12T14:28:59;13.50;99.90
17178;DHT22;8704;52.006;4.374;2023-03-12T14:31:29;13.40;99.90
17178;DHT22;8704;52.006;4.374;2023-03-12T14:34:02;13.30;99.90
17178;DHT22;8704;52.006;4.374;2023-03-12T14:36:37;13.30;99.90
17178;DHT22;8704;52.006;4.374;2023-03-12T14:39:18;13.20;99.90
17178;DHT22;8704;52.006;4.374;2023-03-12T14:41:52;13.30;99.90
17178;DHT22;8704;52.006;4.374;2023-03-12T14:44:24;13.20;99.90
17178;DHT22;8704;52.006;4.374;2023-03-12T14:46:57;13.20;99.90
17178;DHT22;8704;52.006;4.374;2023-03-12T14:49:26;13.10;99.90
17178;DHT22;8704;52.006;4.374;2023-03-12T14:51:54;13.10;99.90
17178;DHT22;8704;52.006;4.374;2023-03-12T14:54:24;13.20;99.90
17178;DHT22;8704;52.006;4.374;2023-03-12T14:56:53;13.10;99.90
17178;DHT22;8704;52.006;4.374;2023-03-12T14:59:25;13.20;99.90
17178;DHT22;8704;52.006;4.374;2023-03-12T15:01:58;13.10;99.90
17178;DHT22;8704;52.006;4.374;2023-03-12T15:04:28;13.00;99.90
17178;DHT22;8704;52.006;4.374;2023-03-12T15:06:57;13.00;99.90
17178;DHT22;8704;52.006;4.374;2023-03-12T15:09:30;12.90;99.90
17178;DHT22;8704;52.006;4.374;2023-03-12T15:12:01;12.80;99.90
17178;DHT22;8704;52.006;4.374;2023-03-12T15:14:34;12.90;99.90
17178;DHT22;8704;52.006;4.374;2023-03-12T15:17:04;12.90;99.90
17178;DHT22;8704;52.006;4.374;2023-03-12T15:19:36;12.70;99.90
17178;DHT22;8704;52.006;4.374;2023-03-12T15:22:08;12.70;99.90
17178;DHT22;8704;52.006;4.374;2023-03-12T15:24:38;12.70;99.90
17178;DHT22;8704;52.006;4.374;2023-03-12T15:27:31;12.50;99.90
17178;DHT22;8704;52.006;4.374;2023-03-12T15:30:01;12.50;99.90
17178;DHT22;8704;52.006;4.374;2023-03-12T15:33:03;12.30;99.90
17178;DHT22;8704;52.006;4.374;2023-03-12T15:35:32;12.20;99.90
17178;DHT22;8704;52.006;4.374;2023-03-12T15:38:01;12.30;99.90
17178;DHT22;8704;52.006;4.374;2023-03-12T15:40:30;12.30;99.90
17178;DHT22;8704;52.006;4.374;2023-03-12T15:42:59;12.20;99.90
17178;DHT22;8704;52.006;4.374;2023-03-12T15:45:35;12.20;99.90
17178;DHT22;8704;52.006;4.374;2023-03-12T15:48:12;12.10;99.90
17178;DHT22;8704;52.006;4.374;2023-03-12T15:50:42;12.10;99.90
17178;DHT22;8704;52.006;4.374;2023-03-12T15:53:25;12.30;99.90
17178;DHT22;8704;52.006;4.374;2023-03-12T15:56:01;12.20;99.90
17178;DHT22;8704;52.006;4.374;2023-03-12T15:58:32;12.00;99.90
17178;DHT22;8704;52.006;4.374;2023-03-12T16:01:10;12.00;99.90
17178;DHT22;8704;52.006;4.374;2023-03-12T16:03:39;11.90;99.90
17178;DHT22;8704;52.006;4.374;2023-03-12T16:06:10;11.80;99.90
17178;DHT22;8704;52.006;4.374;2023-03-12T16:08:43;11.80;99.90
17178;DHT22;8704;52.006;4.374;2023-03-12T16:11:16;11.70;99.90
17178;DHT22;8704;52.006;4.374;2023-03-12T16:13:46;11.70;99.90
17178;DHT22;8704;52.006;4.374;2023-03-12T16:16:16;11.60;99.90
17178;DHT22;8704;52.006;4.374;2023-03-12T16:18:44;11.50;99.90
17178;DHT22;8704;52.006;4.374;2023-03-12T16:21:12;11.60;99.90
17178;DHT22;8704;52.006;4.374;2023-03-12T16:23:40;12.00;99.90
17178;DHT22;8704;52.006;4.374;2023-03-12T16:26:10;11.20;99.90
17178;DHT22;8704;52.006;4.374;2023-03-12T16:28:39;11.30;99.90
17178;DHT22;8704;52.006;4.374;2023-03-12T16:31:10;11.30;99.90
17178;DHT22;8704;52.006;4.374;2023-03-12T16:33:40;12.00;99.90
17178;DHT22;8704;52.006;4.374;2023-03-12T16:36:11;11.10;99.90